Time;durP1;ratioP1;P1;durP2;ratioP2;P2;SDS_P1;SDS_P2;PMS_P1;PMS_P2;Temp;Humidity;BMP_temperature;BMP_pressure;BME280_temperature;BME280_humidity;BME280_pressure;Samples;Min_cycle;Max_cycle;Signal;HPM_P1;HPM_P2
2023/01/28 00:00:36;;;;;;;10.88;5.35;;;;;;;-1.15;93.66;97840.00;4958957;28;20072;-62
2023/01/28 00:03:02;;;;;;;7.07;4.60;;;;;;;-1.07;93.38;97832.84;4957670;28;20107;-62
2023/01/28 00:05:29;;;;;;;11.38;4.65;;;;;;;-0.97;92.41;97838.00;4957492;28;20042;-61
2023/01/28 00:07:56;;;;;;;9.27;5.07;;;;;;;-0.98;92.80;97835.50;4959271;28;20094;-61
2023/01/28 00:10:23;;;;;;;7.60;4.35;;;;;;;-0.95;92.44;97829.88;4957069;28;20035;-61
2023/01/28 00:12:49;;;;;;;7.50;4.30;;;;;;;-0.89;92.23;97833.69;4955869;28;20114;-62
2023/01/28 00:15:16;;;;;;;7.70;4.43;;;;;;;-0.85;91.90;97827.84;4963703;28;20046;-61
2023/01/28 00:17:42;;;;;;;8.25;4.55;;;;;;;-0.87;91.93;97834.34;4960536;28;20126;-61
2023/01/28 00:20:09;;;;;;;7.78;3.97;;;;;;;-0.92;91.97;97833.00;4959133;28;20047;-60
2023/01/28 00:22:36;;;;;;;7.80;4.07;;;;;;;-0.89;92.10;97837.16;4957403;28;20043;-60
2023/01/28 00:25:02;;;;;;;8.40;3.70;;;;;;;-0.87;92.48;97839.66;4958829;28;20046;-60
2023/01/28 00:27:29;;;;;;;7.95;4.20;;;;;;;-0.87;92.50;97844.97;4956043;28;20118;-60
2023/01/28 00:29:56;;;;;;;7.55;4.25;;;;;;;-1.01;93.42;97834.00;4958756;28;20038;-61
2023/01/28 00:32:23;;;;;;;9.65;4.78;;;;;;;-1.08;94.38;97835.66;4965207;28;20418;-61
2023/01/28 00:34:51;;;;;;;7.40;4.53;;;;;;;-1.11;94.64;97838.66;4958632;28;20437;-60
2023/01/28 00:37:18;;;;;;;9.23;4.70;;;;;;;-1.07;94.62;97837.34;4954580;28;20055;-60
2023/01/28 00:39:44;;;;;;;6.72;4.45;;;;;;;-1.09;94.19;97834.00;4960059;28;20085;-60
2023/01/28 00:42:11;;;;;;;7.40;4.45;;;;;;;-1.23;95.76;97835.50;4959147;28;20101;-61
2023/01/28 00:44:37;;;;;;;7.72;3.83;;;;;;;-1.25;95.49;97835.66;4957319;28;20051;-61
2023/01/28 00:47:04;;;;;;;6.07;3.47;;;;;;;-1.16;95.31;97827.69;4954363;28;20039;-61
2023/01/28 00:49:30;;;;;;;7.63;3.80;;;;;;;-1.10;95.10;97833.16;4952713;28;20099;-61
2023/01/28 00:51:57;;;;;;;5.38;2.90;;;;;;;-1.11;95.34;97828.03;4954578;28;20534;-61
2023/01/28 00:54:23;;;;;;;6.60;3.45;;;;;;;-1.09;94.81;97828.69;4957415;28;20043;-61
2023/01/28 00:56:52;;;;;;;5.80;3.55;;;;;;;-1.06;94.68;97826.53;4959693;28;20049;-62
2023/01/28 00:59:19;;;;;;;6.45;3.47;;;;;;;-1.01;93.79;97833.16;4959864;28;20503;-61
2023/01/28 01:01:46;;;;;;;5.90;3.40;;;;;;;-1.03;94.37;97827.19;4958235;28;20122;-61
2023/01/28 01:04:12;;;;;;;6.03;3.08;;;;;;;-1.01;94.52;97825.19;4962402;28;20066;-62
2023/01/28 01:06:39;;;;;;;6.60;2.88;;;;;;;-1.01;94.24;97820.72;4958351;28;20602;-62
2023/01/28 01:09:09;;;;;;;5.43;3.05;;;;;;;-0.98;94.34;97823.06;4970472;28;20078;-61
2023/01/28 01:11:36;;;;;;;6.80;3.17;;;;;;;-0.97;94.24;97822.06;4960972;28;20053;-61
2023/01/28 01:14:04;;;;;;;6.15;3.33;;;;;;;-0.98;94.64;97823.06;4962607;28;20046;-62
2023/01/28 01:16:32;;;;;;;6.20;3.30;;;;;;;-1.02;94.47;97823.53;4956556;28;20499;-61
2023/01/28 01:18:59;;;;;;;8.52;3.60;;;;;;;-1.03;95.13;97820.06;4963483;28;20039;-62
2023/01/28 01:21:27;;;;;;;7.43;3.75;;;;;;;-1.07;95.45;97824.88;4964514;28;20078;-62
2023/01/28 01:23:54;;;;;;;5.95;3.20;;;;;;;-0.89;94.54;97825.72;4955962;28;20713;-61
2023/01/28 01:26:21;;;;;;;5.90;3.22;;;;;;;-0.98;94.49;97823.06;4963075;28;20126;-62
2023/01/28 01:28:50;;;;;;;6.63;3.00;;;;;;;-1.10;95.13;97825.19;4960877;28;20119;-61
2023/01/28 01:31:19;;;;;;;6.72;3.00;;;;;;;-1.06;95.40;97828.38;4953291;28;20636;-62
2023/01/28 01:33:47;;;;;;;7.07;3.35;;;;;;;-1.08;95.78;97830.34;4971625;28;20047;-61
2023/01/28 01:36:16;;;;;;;6.88;3.47;;;;;;;-1.10;95.75;97835.81;4957729;28;20411;-61
2023/01/28 01:38:43;;;;;;;5.57;3.08;;;;;;;-1.15;95.96;97832.84;4962276;28;20082;-60
2023/01/28 01:41:22;;;;;;;6.10;3.65;;;;;;;-1.12;96.06;97840.50;4956196;28;20082;-61
2023/01/28 01:43:58;;;;;;;6.97;3.13;;;;;;;-1.11;96.35;97838.66;4955508;28;20511;-60
2023/01/28 01:46:47;;;;;;;5.95;3.60;;;;;;;-1.04;95.45;97842.31;4953988;28;20065;-61
2023/01/28 01:49:23;;;;;;;5.85;2.85;;;;;;;-0.93;94.86;97839.34;4970962;28;20418;-61
2023/01/28 01:51:54;;;;;;;7.95;3.55;;;;;;;-0.79;94.12;97847.63;4956082;28;20042;-61
2023/01/28 01:54:25;;;;;;;6.63;3.13;;;;;;;-0.90;94.33;97846.13;4956031;28;20043;-61
2023/01/28 01:56:52;;;;;;;6.43;3.17;;;;;;;-0.99;94.52;97845.28;4962920;28;20503;-60
2023/01/28 01:59:24;;;;;;;7.13;3.55;;;;;;;-1.00;94.30;97851.63;4960317;28;20058;-60
2023/01/28 02:01:52;;;;;;;8.50;3.30;;;;;;;-0.98;95.06;97846.97;4960623;28;20042;-62
2023/01/28 02:04:24;;;;;;;6.90;3.33;;;;;;;-0.90;94.42;97839.97;4958240;28;20569;-61
2023/01/28 02:06:51;;;;;;;7.13;3.28;;;;;;;-0.94;94.72;97837.69;4973037;28;20043;-61
2023/01/28 02:09:23;;;;;;;6.40;3.33;;;;;;;-0.89;94.21;97841.66;4955581;28;20594;-61
2023/01/28 02:11:55;;;;;;;6.18;3.67;;;;;;;-0.84;93.98;97840.16;4957415;28;20132;-61
2023/01/28 02:14:26;;;;;;;6.22;2.90;;;;;;;-0.92;94.51;97840.16;4970618;28;20066;-61
2023/01/28 02:16:59;;;;;;;5.03;2.72;;;;;;;-0.93;94.93;97839.34;4952552;28;20139;-61
2023/01/28 02:19:35;;;;;;;5.88;2.75;;;;;;;-0.96;94.95;97836.19;4965050;28;20478;-62
2023/01/28 02:22:19;;;;;;;5.45;2.75;;;;;;;-0.96;95.03;97836.19;4956702;28;20098;-62
2023/01/28 02:25:16;;;;;;;5.80;2.97;;;;;;;-0.97;95.29;97839.81;4955967;28;20046;-62
2023/01/28 02:28:10;;;;;;;5.38;3.03;;;;;;;-0.92;94.56;97842.84;4958744;28;20450;-61
2023/01/28 02:30:49;;;;;;;6.35;2.80;;;;;;;-0.99;95.05;97836.50;4966543;28;20396;-61
2023/01/28 02:33:24;;;;;;;5.22;3.03;;;;;;;-1.00;95.92;97838.31;4966071;28;20047;-61
2023/01/28 02:35:54;;;;;;;6.18;3.03;;;;;;;-0.99;96.11;97841.81;4972441;28;20054;-61
2023/01/28 02:38:29;;;;;;;6.88;3.25;;;;;;;-1.05;95.86;97838.00;4949649;28;20036;-61
2023/01/28 02:41:12;;;;;;;6.97;2.90;;;;;;;-0.99;96.31;97845.28;4955734;28;20043;-61
2023/01/28 02:43:42;;;;;;;5.40;2.90;;;;;;;-0.97;96.45;97855.75;4959382;28;20043;-60
2023/01/28 02:49:13;;;;;;;5.95;3.70;;;;;;;-1.12;97.96;97860.91;4964395;28;20573;-62
2023/01/28 02:51:57;;;;;;;7.47;3.50;;;;;;;-1.16;98.57;97856.91;4956877;28;20442;-61
2023/01/28 02:54:46;;;;;;;5.97;2.97;;;;;;;-1.18;98.77;97859.75;4958797;28;20387;-61
2023/01/28 02:57:27;;;;;;;6.45;4.00;;;;;;;-1.11;98.91;97863.41;4958909;28;20117;-61
2023/01/28 03:00:10;;;;;;;8.00;3.70;;;;;;;-1.08;98.54;97859.59;4950456;28;20067;-62
2023/01/28 03:03:00;;;;;;;7.13;3.58;;;;;;;-1.02;97.96;97858.94;4957421;28;20058;-62
2023/01/28 03:06:04;;;;;;;5.88;3.45;;;;;;;-0.94;97.57;97858.94;4953598;28;20519;-61
2023/01/28 03:37:02;;;;;;;10.70;5.15;;;;;;;-1.23;100.00;97862.06;4939598;29;20070;-61
2023/01/28 03:39:58;;;;;;;8.77;4.97;;;;;;;-1.24;100.00;97868.38;4952276;28;20040;-61
2023/01/28 03:42:24;;;;;;;8.88;5.28;;;;;;;-1.18;100.00;97870.41;4974193;28;20047;-61
2023/01/28 03:45:03;;;;;;;10.75;5.28;;;;;;;-1.21;100.00;97871.53;4963485;28;20138;-61
2023/01/28 03:47:31;;;;;;;8.38;4.68;;;;;;;-1.20;100.00;97872.38;4956624;28;20619;-62
2023/01/28 03:50:00;;;;;;;9.70;4.72;;;;;;;-1.20;100.00;97870.56;4949596;28;20706;-60
2023/01/28 03:52:31;;;;;;;8.80;5.57;;;;;;;-1.20;100.00;97870.56;4959947;28;20047;-61
2023/01/28 03:55:22;;;;;;;;;;;;;;;-1.26;100.00;97876.50;4952356;28;20062;-61
2023/01/28 03:57:50;;;;;;;8.45;5.03;;;;;;;-1.24;100.00;97874.53;4947918;28;19930;-61
2023/01/28 04:00:18;;;;;;;8.90;5.30;;;;;;;-1.20;100.00;97873.22;4962228;28;20043;-61
2023/01/28 04:02:45;;;;;;;11.63;4.75;;;;;;;-1.19;100.00;97874.88;4960255;28;20097;-61
2023/01/28 04:05:19;;;;;;;9.75;5.95;;;;;;;-1.30;100.00;97875.16;4965102;28;20412;-60
2023/01/28 04:07:50;;;;;;;10.13;5.47;;;;;;;-1.37;100.00;97871.53;4963115;28;20051;-62
2023/01/28 04:10:43;;;;;;;8.57;4.78;;;;;;;-1.31;100.00;97870.84;4937016;28;20098;-60
2023/01/28 04:13:20;;;;;;;11.00;5.75;;;;;;;-1.31;100.00;97876.16;4962549;28;20053;-61
2023/01/28 04:15:47;;;;;;;11.52;6.25;;;;;;;-1.31;100.00;97876.16;4956048;28;20069;-61
2023/01/28 04:18:15;;;;;;;10.50;5.78;;;;;;;-1.37;100.00;97882.16;4962736;28;20046;-61
2023/01/28 04:20:41;;;;;;;12.70;5.97;;;;;;;-1.37;100.00;97882.16;4957830;28;20043;-61
2023/01/28 04:23:08;;;;;;;8.98;5.10;;;;;;;-1.28;100.00;97889.13;4959791;28;20050;-62
2023/01/28 04:25:35;;;;;;;10.07;5.28;;;;;;;-1.26;100.00;97878.34;4957382;28;20557;-61
2023/01/28 04:28:05;;;;;;;11.95;5.43;;;;;;;-1.21;100.00;97889.31;4955301;28;20070;-61
2023/01/28 04:30:31;;;;;;;11.30;5.95;;;;;;;-1.12;100.00;97884.81;4964706;28;20042;-61
2023/01/28 04:33:18;;;;;;;9.00;4.78;;;;;;;-1.09;100.00;97892.47;4945639;28;20129;-60
2023/01/28 04:35:59;;;;;;;11.07;5.22;;;;;;;-1.09;100.00;97890.66;4953832;28;20043;-61
2023/01/28 04:38:41;;;;;;;10.07;5.07;;;;;;;-1.08;100.00;97894.97;4957205;28;20047;-61
2023/01/28 04:41:30;;;;;;;9.57;4.93;;;;;;;-1.09;100.00;97895.97;4957188;28;20039;-61
2023/01/28 04:44:03;;;;;;;11.07;5.88;;;;;;;-1.17;100.00;97898.63;4955437;28;20055;-61
2023/01/28 04:46:46;;;;;;;9.55;4.93;;;;;;;-1.18;100.00;97897.78;4958297;28;20043;-61
2023/01/28 04:49:25;;;;;;;9.52;5.22;;;;;;;-1.20;100.00;97904.25;4952185;28;20058;-61
2023/01/28 04:52:10;;;;;;;9.25;5.05;;;;;;;-1.25;100.00;97902.06;4954658;28;20684;-61
2023/01/28 04:54:59;;;;;;;8.85;4.78;;;;;;;-1.38;100.00;97902.56;4961289;28;20133;-61
2023/01/28 04:57:28;;;;;;;11.77;5.95;;;;;;;-1.46;100.00;97899.88;4962651;28;20062;-62
2023/01/28 04:59:54;;;;;;;10.25;5.55;;;;;;;-1.42;100.00;97903.03;4964763;28;20527;-61
2023/01/28 05:02:20;;;;;;;10.05;5.47;;;;;;;-1.41;100.00;97907.38;4953335;28;20131;-62
2023/01/28 05:04:47;;;;;;;10.65;5.28;;;;;;;-1.42;100.00;97909.19;4950880;28;20051;-61
2023/01/28 05:07:51;;;;;;;12.20;5.97;;;;;;;-1.31;100.00;97913.38;4955688;28;20161;-61
2023/01/28 05:10:18;;;;;;;12.82;6.38;;;;;;;-1.27;100.00;97922.69;4960978;28;20054;-61
2023/01/28 05:12:46;;;;;;;11.48;5.53;;;;;;;-1.27;100.00;97927.16;4968577;28;20047;-61
2023/01/28 05:15:14;;;;;;;10.57;5.55;;;;;;;-1.21;100.00;97923.88;4952276;28;20071;-61
2023/01/28 05:17:42;;;;;;;11.30;5.97;;;;;;;-1.29;100.00;97921.19;4957548;28;20121;-62
2023/01/28 05:20:11;;;;;;;10.73;6.55;;;;;;;-1.28;100.00;97918.38;4959069;28;20865;-61
2023/01/28 05:22:39;;;;;;;11.63;6.72;;;;;;;-1.22;100.00;97922.22;4949402;28;20082;-61
2023/01/28 05:25:15;;;;;;;11.10;6.50;;;;;;;-1.25;100.00;97918.03;4958515;28;20105;-61
2023/01/28 05:27:42;;;;;;;11.18;6.72;;;;;;;-1.30;100.00;97920.34;4956316;28;20078;-62
2023/01/28 05:30:09;;;;;;;13.15;6.45;;;;;;;-1.33;100.00;97916.19;4959007;28;20554;-61
2023/01/28 05:32:35;;;;;;;12.55;6.70;;;;;;;-1.31;100.00;97924.00;4958499;28;20054;-61
2023/01/28 05:35:02;;;;;;;11.98;6.63;;;;;;;-1.26;100.00;97924.34;4957423;28;20042;-61
2023/01/28 05:37:29;;;;;;;11.07;6.18;;;;;;;-1.25;100.00;97923.34;4961616;28;20054;-61
2023/01/28 05:39:56;;;;;;;12.70;7.47;;;;;;;-1.28;100.00;97929.00;4959158;28;20680;-62
2023/01/28 05:42:22;;;;;;;11.15;6.95;;;;;;;-1.34;100.00;97922.50;4957251;28;20038;-60
2023/01/28 05:44:54;;;;;;;11.20;6.93;;;;;;;-1.36;100.00;97935.09;4958712;28;20906;-61
2023/01/28 05:47:37;;;;;;;13.13;8.00;;;;;;;-1.35;100.00;97930.63;4956014;28;20588;-61
2023/01/28 05:50:18;;;;;;;13.05;7.28;;;;;;;-1.29;100.00;97934.47;4964510;28;20073;-62
2023/01/28 05:53:07;;;;;;;12.05;7.70;;;;;;;-1.28;100.00;97931.66;4956403;28;20225;-62
2023/01/28 05:55:34;;;;;;;12.27;6.28;;;;;;;-1.26;100.00;97936.81;4954137;28;20643;-61
2023/01/28 05:58:01;;;;;;;13.02;6.78;;;;;;;-1.23;100.00;97932.00;4962814;28;20493;-60
2023/01/28 06:00:27;;;;;;;12.82;6.72;;;;;;;-1.13;100.00;97934.50;4955388;28;20054;-61
2023/01/28 06:02:54;;;;;;;12.60;6.65;;;;;;;-1.26;100.00;97937.63;4960016;28;20097;-62
2023/01/28 06:05:22;;;;;;;11.23;6.65;;;;;;;-1.24;100.00;97943.63;4962424;28;20538;-61
2023/01/28 06:07:49;;;;;;;14.10;6.97;;;;;;;-1.21;100.00;97943.28;4954196;28;20039;-62
2023/01/28 06:10:19;;;;;;;12.73;6.93;;;;;;;-1.20;100.00;97949.44;4962911;28;20520;-60
2023/01/28 06:12:46;;;;;;;10.77;6.32;;;;;;;-1.18;100.00;97947.47;4976978;28;20926;-60
2023/01/28 06:15:31;;;;;;;11.30;6.57;;;;;;;-1.16;100.00;97955.25;4975015;28;20043;-61
2023/01/28 06:18:01;;;;;;;13.38;7.10;;;;;;;-1.21;100.00;97958.41;4958401;28;20054;-63
2023/01/28 06:20:31;;;;;;;12.25;6.60;;;;;;;-1.21;100.00;97961.06;4957459;28;20142;-61
2023/01/28 06:22:58;;;;;;;12.07;6.25;;;;;;;-1.19;100.00;97965.22;4948831;28;20040;-60
2023/01/28 06:25:25;;;;;;;12.50;6.47;;;;;;;-1.12;100.00;97970.72;4953839;28;20039;-60
2023/01/28 06:27:52;;;;;;;12.00;7.43;;;;;;;-1.10;100.00;97965.25;4958673;28;20057;-59
2023/01/28 06:30:19;;;;;;;12.75;6.72;;;;;;;-1.07;100.00;97973.72;4959415;28;20097;-58
2023/01/28 06:32:45;;;;;;;13.88;6.82;;;;;;;-1.09;100.00;97970.41;4960307;28;20514;-59
2023/01/28 06:35:12;;;;;;;12.10;7.03;;;;;;;-1.05;100.00;97974.41;4963087;28;20062;-60
2023/01/28 06:37:38;;;;;;;11.50;6.40;;;;;;;-1.06;100.00;97969.25;4957037;28;20054;-60
2023/01/28 06:40:05;;;;;;;13.82;7.30;;;;;;;-1.00;100.00;97981.06;4955293;28;20077;-60
2023/01/28 06:42:32;;;;;;;11.77;7.05;;;;;;;-1.00;100.00;97989.84;4957180;28;20098;-59
2023/01/28 06:44:58;;;;;;;10.90;6.43;;;;;;;-1.03;100.00;97986.69;4959592;28;20047;-61
2023/01/28 06:47:25;;;;;;;12.45;6.32;;;;;;;-1.07;100.00;97991.50;4955393;28;20078;-58
2023/01/28 06:49:51;;;;;;;13.80;6.47;;;;;;;-1.00;100.00;97989.84;4952688;28;20062;-60
2023/01/28 06:52:17;;;;;;;11.68;6.65;;;;;;;-0.98;100.00;97989.69;4960927;28;20422;-60
2023/01/28 06:54:44;;;;;;;12.30;7.22;;;;;;;-1.04;100.00;97993.81;4952445;28;20047;-58
2023/01/28 06:57:10;;;;;;;18.63;7.72;;;;;;;-0.89;100.00;97988.72;4963435;28;20038;-58
2023/01/28 06:59:37;;;;;;;12.20;7.93;;;;;;;-0.94;100.00;97991.88;4963610;28;20051;-59
2023/01/28 07:02:03;;;;;;;17.05;9.43;;;;;;;-0.95;100.00;97990.19;4960086;28;20082;-60
2023/01/28 07:04:30;;;;;;;15.63;8.75;;;;;;;-1.05;100.00;97986.84;4958656;28;20077;-60
2023/01/28 07:06:57;;;;;;;14.40;9.10;;;;;;;-1.09;100.00;97993.47;4956495;28;20054;-60
2023/01/28 07:09:23;;;;;;;12.73;7.88;;;;;;;-0.97;100.00;97991.34;4967482;28;20467;-59
2023/01/28 07:11:50;;;;;;;14.90;9.07;;;;;;;-1.03;100.00;97998.16;4955493;28;20131;-59
2023/01/28 07:14:16;;;;;;;16.13;8.48;;;;;;;-1.07;100.00;97996.81;4959780;28;20039;-59
2023/01/28 07:16:43;;;;;;;13.43;8.20;;;;;;;-0.92;100.00;98002.34;4960716;28;20090;-58
2023/01/28 07:19:09;;;;;;;19.48;8.82;;;;;;;-0.90;100.00;98008.31;4961390;28;20494;-59
2023/01/28 07:21:36;;;;;;;22.50;9.65;;;;;;;-0.85;100.00;98010.50;4965327;28;20043;-60
2023/01/28 07:24:04;;;;;;;20.17;10.15;;;;;;;-0.97;100.00;98016.13;4962170;28;20106;-58
2023/01/28 07:26:31;;;;;;;21.85;9.75;;;;;;;-1.09;100.00;98012.94;4955005;28;20548;-58
2023/01/28 07:28:57;;;;;;;18.42;9.57;;;;;;;-1.00;100.00;98013.78;4961978;28;20118;-51
2023/01/28 07:31:24;;;;;;;19.83;10.32;;;;;;;-0.94;100.00;98018.47;4961909;28;20105;-52
2023/01/28 07:33:50;;;;;;;18.23;9.05;;;;;;;-0.98;100.00;98018.94;4950588;28;20126;-55
2023/01/28 07:36:17;;;;;;;19.50;10.55;;;;;;;-0.99;100.00;98020.75;4959972;28;20097;-60
2023/01/28 07:38:43;;;;;;;16.70;9.35;;;;;;;-0.85;100.00;98023.78;4958504;28;20043;-60
2023/01/28 07:41:10;;;;;;;20.95;10.32;;;;;;;-0.84;100.00;98028.13;4949818;28;20090;-60
2023/01/28 07:43:36;;;;;;;16.48;9.57;;;;;;;-0.96;100.00;98015.13;4955695;28;20059;-61
2023/01/28 07:46:03;;;;;;;12.63;8.52;;;;;;;-1.02;100.00;98017.59;4956061;28;20046;-60
2023/01/28 07:48:29;;;;;;;14.43;8.82;;;;;;;-0.93;100.00;98028.09;4962399;28;20126;-61
2023/01/28 07:50:59;;;;;;;15.18;9.63;;;;;;;-0.75;100.00;98028.94;4958639;28;20070;-61
2023/01/28 07:53:25;;;;;;;16.55;9.73;;;;;;;-0.69;100.00;98029.16;4962529;28;20117;-60
2023/01/28 07:55:58;;;;;;;16.88;10.50;;;;;;;-0.85;100.00;98039.75;4957911;28;20046;-61
2023/01/28 07:58:24;;;;;;;16.15;9.55;;;;;;;-0.82;100.00;98037.59;4956420;28;20701;-61
2023/01/28 08:00:55;;;;;;;16.92;10.00;;;;;;;-0.74;100.00;98041.28;4960199;28;20051;-60
2023/01/28 08:03:22;;;;;;;16.97;9.70;;;;;;;-0.81;100.00;98041.91;4963656;28;20133;-60
2023/01/28 08:05:51;;;;;;;18.20;9.52;;;;;;;-0.68;100.00;98048.59;4966929;28;20047;-61
2023/01/28 08:08:18;;;;;;;15.52;8.50;;;;;;;-0.61;100.00;98046.09;4959656;28;20453;-59
2023/01/28 08:10:45;;;;;;;15.23;8.60;;;;;;;-0.51;100.00;98046.81;4957575;28;20074;-61
2023/01/28 08:13:13;;;;;;;13.77;8.43;;;;;;;-0.45;100.00;98051.47;4957933;28;20050;-61
2023/01/28 08:15:40;;;;;;;15.00;9.43;;;;;;;-0.46;100.00;98052.47;4956218;28;20047;-60
2023/01/28 08:18:08;;;;;;;15.68;8.85;;;;;;;-0.42;100.00;98050.28;4957995;28;20051;-60
2023/01/28 08:20:35;;;;;;;14.88;8.63;;;;;;;-0.30;100.00;98053.47;4958395;28;20137;-61
2023/01/28 08:23:10;;;;;;;12.48;7.95;;;;;;;-0.41;100.00;98055.47;4957927;28;20565;-61
2023/01/28 08:25:37;;;;;;;14.68;9.63;;;;;;;-0.53;100.00;98054.09;4957092;28;20065;-59
2023/01/28 08:28:04;;;;;;;17.88;9.88;;;;;;;-0.56;100.00;98054.41;4956703;28;21501;-60
2023/01/28 08:30:32;;;;;;;16.88;9.07;;;;;;;-0.78;100.00;98051.38;4952094;28;20126;-57
2023/01/28 08:32:59;;;;;;;18.52;9.88;;;;;;;-0.80;100.00;98058.72;4955925;28;20101;-58
2023/01/28 08:35:26;;;;;;;25.45;13.85;;;;;;;-0.82;100.00;98055.34;4955788;28;20065;-56
2023/01/28 08:37:53;;;;;;;17.50;10.63;;;;;;;-0.80;100.00;98058.72;4952526;28;20050;-58
2023/01/28 08:40:20;;;;;;;17.65;10.90;;;;;;;-0.77;100.00;98055.72;4955348;28;20047;-57
2023/01/28 08:42:48;;;;;;;17.58;9.85;;;;;;;-0.61;100.00;98054.94;4954934;28;20520;-60
2023/01/28 08:45:15;;;;;;;19.20;10.52;;;;;;;-0.43;100.00;98053.97;4954463;28;20069;-60
2023/01/28 08:47:49;;;;;;;15.15;10.95;;;;;;;-0.37;100.00;98052.47;4956753;28;20466;-60
2023/01/28 08:50:17;;;;;;;20.02;10.80;;;;;;;-0.45;100.00;98056.78;4949415;28;20133;-59
2023/01/28 08:52:44;;;;;;;15.07;9.13;;;;;;;-0.34;100.00;98054.81;4954388;28;20039;-61
2023/01/28 08:55:11;;;;;;;16.70;9.38;;;;;;;-0.21;100.00;98057.81;4956286;28;20043;-60
2023/01/28 08:57:38;;;;;;;19.10;9.50;;;;;;;-0.13;100.00;98059.63;4961451;28;20039;-60
2023/01/28 09:00:09;;;;;;;19.83;11.77;;;;;;;0.06;100.00;98062.94;4959293;28;20101;-59
2023/01/28 09:02:36;;;;;;;14.13;8.68;;;;;;;-0.22;100.00;98057.97;4961799;28;20045;-60
2023/01/28 09:05:04;;;;;;;15.50;9.18;;;;;;;-0.30;100.00;98064.09;4958991;28;20113;-61
2023/01/28 09:07:33;;;;;;;15.52;9.05;;;;;;;-0.36;100.00;98070.94;4960287;28;20074;-61
2023/01/28 09:09:59;;;;;;;17.25;10.88;;;;;;;-0.31;100.00;98068.63;4960147;28;20058;-60
2023/01/28 09:12:26;;;;;;;16.55;10.13;;;;;;;-0.20;100.00;98071.94;4957525;28;20042;-61
2023/01/28 09:14:53;;;;;;;18.55;9.88;;;;;;;-0.04;100.00;98073.78;4953223;28;20042;-61
2023/01/28 09:17:20;;;;;;;16.17;9.48;;;;;;;0.09;100.00;98074.13;4957604;28;20054;-61
2023/01/28 09:19:47;;;;;;;29.23;15.65;;;;;;;0.12;100.00;98081.75;4953755;28;20044;-61
2023/01/28 09:22:13;;;;;;;23.83;11.95;;;;;;;0.09;100.00;98078.59;4951590;28;20134;-61
2023/01/28 09:24:40;;;;;;;22.73;11.50;;;;;;;0.17;100.00;98075.94;4958130;28;20070;-61
2023/01/28 09:27:06;;;;;;;16.40;9.93;;;;;;;0.18;100.00;98085.59;4959739;28;20051;-60
2023/01/28 09:29:33;;;;;;;15.70;8.95;;;;;;;0.35;100.00;98086.41;4955411;28;20039;-60
2023/01/28 09:32:00;;;;;;;20.05;9.50;;;;;;;0.38;100.00;98091.38;4961488;28;20149;-61
2023/01/28 09:34:26;;;;;;;16.92;10.00;;;;;;;0.30;100.00;98086.09;4954575;28;20057;-61
2023/01/28 09:36:53;;;;;;;17.15;10.55;;;;;;;0.21;100.00;98089.75;4960680;28;20053;-60
2023/01/28 09:39:19;;;;;;;29.83;17.20;;;;;;;0.03;100.00;98085.44;4955452;28;20057;-61
2023/01/28 09:42:03;;;;;;;23.60;14.57;;;;;;;0.05;100.00;98093.25;4955256;28;20127;-58
2023/01/28 09:44:39;;;;;;;24.38;17.23;;;;;;;0.16;100.00;98100.06;4961530;28;20666;-61
2023/01/28 09:47:18;;;;;;;21.55;13.00;;;;;;;-0.08;100.00;98101.75;4955398;28;20613;-61
2023/01/28 09:49:49;;;;;;;20.45;11.57;;;;;;;-0.08;100.00;98112.41;4958060;28;20051;-56
2023/01/28 09:52:20;;;;;;;18.38;10.55;;;;;;;-0.10;100.00;98117.03;4958570;28;20042;-59
2023/01/28 09:54:54;;;;;;;20.88;12.10;;;;;;;-0.02;100.00;98114.38;4956722;28;20079;-61
2023/01/28 09:57:25;;;;;;;19.23;10.95;;;;;;;-0.28;100.00;98110.03;4958309;28;20047;-61
2023/01/28 09:59:52;;;;;;;18.95;10.07;;;;;;;-0.31;100.00;98107.69;4958193;28;20061;-59
2023/01/28 10:02:30;;;;;;;17.63;10.07;;;;;;;-0.21;100.00;98112.88;4958089;28;20769;-61
2023/01/28 10:05:24;;;;;;;18.95;9.95;;;;;;;-0.15;100.00;98113.03;4951771;28;20039;-59
2023/01/28 10:08:26;;;;;;;17.80;10.15;;;;;;;-0.15;100.00;98117.53;4948489;28;20707;-59
2023/01/28 10:11:19;;;;;;;16.00;9.55;;;;;;;0.02;100.00;98106.88;4956573;28;20511;-59
2023/01/28 10:13:58;;;;;;;17.90;11.40;;;;;;;-0.02;100.00;98112.56;4954152;28;20478;-58
2023/01/28 10:16:41;;;;;;;24.17;14.57;;;;;;;-0.02;100.00;98104.56;4961916;28;20104;-59
2023/01/28 10:19:40;;;;;;;24.35;13.45;;;;;;;0.04;100.00;98103.06;4954967;28;20055;-58
2023/01/28 10:22:23;;;;;;;23.27;13.13;;;;;;;0.00;100.00;98101.75;4954816;28;20083;-58
2023/01/28 10:25:02;;;;;;;18.23;10.77;;;;;;;0.05;100.00;98098.56;4960405;28;20121;-60
2023/01/28 10:27:31;;;;;;;19.10;9.35;;;;;;;0.21;100.00;98095.91;4957938;28;20047;-61
2023/01/28 10:30:00;;;;;;;19.40;10.90;;;;;;;0.14;100.00;98094.09;4956350;28;20042;-61
2023/01/28 10:32:37;;;;;;;17.60;9.77;;;;;;;0.05;100.00;98099.41;4955315;28;20116;-60
2023/01/28 10:35:04;;;;;;;19.52;9.98;;;;;;;-0.04;100.00;98087.91;4953604;28;20134;-60
2023/01/28 10:37:34;;;;;;;17.83;9.48;;;;;;;-0.14;100.00;98095.25;4959392;28;20066;-61
2023/01/28 10:40:02;;;;;;;19.65;10.98;;;;;;;-0.03;100.00;98094.09;4958108;28;20086;-61
2023/01/28 10:42:37;;;;;;;21.95;11.00;;;;;;;-0.04;100.00;98090.59;4962978;28;20123;-61
2023/01/28 10:45:19;;;;;;;20.15;9.98;;;;;;;0.15;100.00;98093.94;4943350;28;20545;-60
2023/01/28 10:48:12;;;;;;;20.10;10.63;;;;;;;0.29;100.00;98088.94;4946504;28;20043;-60
2023/01/28 10:50:49;;;;;;;19.75;10.98;;;;;;;0.48;100.00;98083.22;4961261;28;20502;-60
2023/01/28 10:53:16;;;;;;;18.73;9.75;;;;;;;0.57;100.00;98088.53;4959276;28;20406;-61
2023/01/28 10:55:55;;;;;;;18.23;9.23;;;;;;;0.76;100.00;98095.31;4958284;28;20047;-60
2023/01/28 10:58:30;;;;;;;16.17;8.98;;;;;;;0.89;99.87;98092.13;4960196;28;20105;-61
2023/01/28 11:01:00;;;;;;;15.98;9.40;;;;;;;0.94;99.87;98095.09;4959575;28;20050;-60
2023/01/28 11:03:29;;;;;;;17.88;9.05;;;;;;;0.91;98.55;98095.44;4959291;28;20501;-60
2023/01/28 11:05:57;;;;;;;17.42;9.57;;;;;;;0.96;99.22;98097.59;4960805;28;20042;-60
2023/01/28 11:08:26;;;;;;;17.75;9.38;;;;;;;0.56;100.00;98102.88;4963413;28;20035;-60
2023/01/28 11:10:54;;;;;;;17.38;9.38;;;;;;;0.51;100.00;98098.88;4956648;28;20035;-61
2023/01/28 11:13:27;;;;;;;17.35;9.15;;;;;;;0.57;100.00;98091.19;4963669;28;20038;-60
2023/01/28 11:16:04;;;;;;;16.90;9.35;;;;;;;0.60;100.00;98090.88;4959085;28;20482;-57
2023/01/28 11:18:38;;;;;;;14.98;8.80;;;;;;;0.57;100.00;98096.53;4953195;28;20043;-60
2023/01/28 11:21:14;;;;;;;16.80;9.70;;;;;;;0.47;100.00;98092.22;4962086;28;20143;-61
2023/01/28 11:23:50;;;;;;;22.70;10.70;;;;;;;0.57;100.00;98092.03;4951573;28;20056;-60
2023/01/28 11:26:23;;;;;;;17.52;9.63;;;;;;;0.74;100.00;98094.69;4958163;28;20035;-60
2023/01/28 11:28:51;;;;;;;20.98;10.27;;;;;;;0.96;100.00;98094.94;4955860;28;20042;-60
2023/01/28 11:31:20;;;;;;;22.05;10.70;;;;;;;0.93;99.78;98096.13;4950771;28;20070;-60
2023/01/28 11:33:53;;;;;;;15.90;9.20;;;;;;;0.75;100.00;98094.50;4955479;28;20046;-60
2023/01/28 11:36:22;;;;;;;16.80;9.50;;;;;;;0.64;100.00;98093.03;4950278;28;20129;-59
2023/01/28 11:39:00;;;;;;;17.40;9.50;;;;;;;0.79;100.00;98095.00;4929991;28;20101;-59
2023/01/28 11:41:31;;;;;;;17.23;8.63;;;;;;;0.89;99.81;98097.47;4953063;28;20046;-59
2023/01/28 11:44:04;;;;;;;18.45;11.23;;;;;;;0.45;100.00;98096.06;4957634;28;20047;-61
2023/01/28 11:46:43;;;;;;;16.38;9.00;;;;;;;0.49;100.00;98094.72;4950555;28;20047;-64
2023/01/28 11:49:21;;;;;;;15.75;8.77;;;;;;;0.62;100.00;98095.03;4959148;28;20059;-62
2023/01/28 11:52:09;;;;;;;15.57;8.68;;;;;;;0.45;100.00;98090.72;4953427;28;20030;-61
2023/01/28 11:54:57;;;;;;;18.92;10.27;;;;;;;0.56;100.00;98102.88;4962584;28;20502;-61
2023/01/28 11:57:29;;;;;;;16.48;9.73;;;;;;;0.46;100.00;98092.38;4957932;28;20097;-60
2023/01/28 12:00:50;;;;;;;16.88;8.68;;;;;;;0.03;100.00;98096.06;4960011;28;20502;-61
2023/01/28 12:03:47;;;;;;;13.35;7.38;;;;;;;0.02;100.00;98096.25;4932313;28;20082;-60
2023/01/28 12:06:46;;;;;;;16.92;9.15;;;;;;;0.12;100.00;98103.06;4937467;29;20075;-61
2023/01/28 12:09:28;;;;;;;17.60;10.25;;;;;;;-0.11;100.00;98105.53;4956628;28;20066;-60
2023/01/28 12:12:15;;;;;;;15.23;8.18;;;;;;;-0.03;100.00;98110.06;4953477;28;20474;-59
2023/01/28 12:14:56;;;;;;;13.75;7.95;;;;;;;-0.24;100.00;98099.88;4962152;28;20058;-58